Laem Chabang, Thailand

1:27 PM ICT on February 22, 2017 (GMT +0700)
Thanon Nong Khla Mai | | Change Station

Elev 0 ft 13.09 °N, 100.96 °E | Updated 4 minutes ago

Partly Cloudy
Partly Cloudy
91.6 °F
Feels Like 107 °F
N
0.0
Wind Variable Wind from North
Gusts 0.6 mph

Today
High -- | Low -- °F
--% Chance of Precip.
Yesterday
High -- | Low -- °F
Precip. -- in
Pressure 29.89 in
Visibility 6.2 miles
Clouds Few 2000 ft
Heat Index 107 °F
Dew Point 78 °F
Humidity 65%
Rainfall Not available.
Snow Depth Not available.
6:36 AM 6:23 PM
Waning Crescent, 19% visible
METAR VTBS 220600Z 20008KT 160V270 9999 FEW020 33/22 Q1012 NOSIG
Pressure 29.89 in
Visibility 6.2 miles
Clouds Few 2000 ft
Heat Index 107 °F
Dew Point 78 °F
Humidity 65%
Rainfall Not available.
Snow Depth Not available.
6:36 AM 6:23 PM
Waning Crescent, 19% visible
METAR VTBS 220600Z 20008KT 160V270 9999 FEW020 33/22 Q1012 NOSIG

Get Your Daily Forecast Email!

Thanks for signing up!

Be on the lookout for a verification email in your inbox.

You'll start receiving the daily forecast at 8 AM.

×

10-Day Weather Forecast

No radar image for this location.
×

Almanac

Astronomy

Feb. 22, 2017 Rise Set
Actual Time
Civil Twilight
Nautical Twilight
Astronomical Twilight
Moon
Length of Visible Light
Length of Day
Tomorrow will be .
, % of the Moon is Illuminated

Today's Extremes

Country Highs Country Lows

Community

WunderPhotos

Upload Photos

1,962,540 photos uploaded!

WunderBlog® & News

Nearby

Air Quality

  Air Quality AQ Index Pollutant
Not available.

Snow Depth

Station Depth Elevation

Earthquake Activity

City Distance Mag. Time & Date
Minimum magnitude displayed is 2.5.

Coastal Water Temperatures

Place Temperature

Stations

Nearby Weather Stations

Station Location Temp. Windchill Dew Point Humidity Wind Precip. Elev Updated Type